sensor_id;sensor_type;location;lat;lon;timestamp;P1;durP1;ratioP1;P2;durP2;ratioP2
63284;SDS011;49409;55.708;37.522;2022-07-29T00:00:37;1.80;;;1.08;;
63284;SDS011;49409;55.708;37.522;2022-07-29T00:03:03;0.85;;;0.82;;
63284;SDS011;49409;55.708;37.522;2022-07-29T00:05:28;1.20;;;1.10;;
63284;SDS011;49409;55.708;37.522;2022-07-29T00:07:54;3.17;;;1.50;;
63284;SDS011;49409;55.708;37.522;2022-07-29T00:10:20;2.42;;;1.10;;
63284;SDS011;49409;55.708;37.522;2022-07-29T00:12:46;2.10;;;1.00;;
63284;SDS011;49409;55.708;37.522;2022-07-29T00:15:12;2.88;;;1.20;;
63284;SDS011;49409;55.708;37.522;2022-07-29T00:17:37;3.65;;;1.50;;
63284;SDS011;49409;55.708;37.522;2022-07-29T00:20:03;1.95;;;1.23;;
63284;SDS011;49409;55.708;37.522;2022-07-29T00:22:29;2.03;;;1.15;;
63284;SDS011;49409;55.708;37.522;2022-07-29T00:24:55;4.43;;;1.38;;
63284;SDS011;49409;55.708;37.522;2022-07-29T00:27:20;3.50;;;1.27;;
63284;SDS011;49409;55.708;37.522;2022-07-29T00:29:46;1.50;;;1.05;;
63284;SDS011;49409;55.708;37.522;2022-07-29T00:32:12;2.03;;;1.27;;
63284;SDS011;49409;55.708;37.522;2022-07-29T00:34:38;2.90;;;1.30;;
63284;SDS011;49409;55.708;37.522;2022-07-29T00:37:23;3.03;;;1.50;;
63284;SDS011;49409;55.708;37.522;2022-07-29T00:39:48;2.67;;;1.17;;
63284;SDS011;49409;55.708;37.522;2022-07-29T00:42:14;2.15;;;1.13;;
63284;SDS011;49409;55.708;37.522;2022-07-29T00:44:40;3.45;;;1.15;;
63284;SDS011;49409;55.708;37.522;2022-07-29T00:47:06;1.73;;;1.27;;
63284;SDS011;49409;55.708;37.522;2022-07-29T00:49:33;1.92;;;1.40;;
63284;SDS011;49409;55.708;37.522;2022-07-29T00:52:03;1.25;;;1.15;;
63284;SDS011;49409;55.708;37.522;2022-07-29T00:54:29;2.78;;;1.50;;
63284;SDS011;49409;55.708;37.522;2022-07-29T00:56:58;3.05;;;1.50;;
63284;SDS011;49409;55.708;37.522;2022-07-29T00:59:25;3.67;;;1.40;;
63284;SDS011;49409;55.708;37.522;2022-07-29T01:01:52;3.67;;;1.25;;
63284;SDS011;49409;55.708;37.522;2022-07-29T01:04:18;2.03;;;1.38;;
63284;SDS011;49409;55.708;37.522;2022-07-29T01:06:44;2.22;;;1.02;;
63284;SDS011;49409;55.708;37.522;2022-07-29T01:09:10;4.50;;;1.45;;
63284;SDS011;49409;55.708;37.522;2022-07-29T01:11:37;2.42;;;1.20;;
63284;SDS011;49409;55.708;37.522;2022-07-29T01:14:03;2.75;;;1.30;;
63284;SDS011;49409;55.708;37.522;2022-07-29T01:16:32;2.17;;;0.95;;
63284;SDS011;49409;55.708;37.522;2022-07-29T01:19:21;4.15;;;1.30;;
63284;SDS011;49409;55.708;37.522;2022-07-29T01:22:30;3.85;;;1.30;;
63284;SDS011;49409;55.708;37.522;2022-07-29T01:32:53;2.00;;;1.30;;
63284;SDS011;49409;55.708;37.522;2022-07-29T01:35:26;3.15;;;1.73;;
63284;SDS011;49409;55.708;37.522;2022-07-29T01:41:01;1.85;;;1.20;;
63284;SDS011;49409;55.708;37.522;2022-07-29T01:43:36;4.97;;;1.40;;
63284;SDS011;49409;55.708;37.522;2022-07-29T01:46:09;2.00;;;1.35;;
63284;SDS011;49409;55.708;37.522;2022-07-29T01:48:45;1.88;;;1.45;;
63284;SDS011;49409;55.708;37.522;2022-07-29T01:51:18;3.70;;;1.30;;
63284;SDS011;49409;55.708;37.522;2022-07-29T01:54:08;3.33;;;1.60;;
63284;SDS011;49409;55.708;37.522;2022-07-29T01:56:51;2.15;;;1.63;;
63284;SDS011;49409;55.708;37.522;2022-07-29T01:59:21;2.35;;;1.30;;
63284;SDS011;49409;55.708;37.522;2022-07-29T02:01:48;2.88;;;1.80;;
63284;SDS011;49409;55.708;37.522;2022-07-29T02:04:17;3.10;;;1.65;;
63284;SDS011;49409;55.708;37.522;2022-07-29T02:06:45;3.08;;;1.65;;
63284;SDS011;49409;55.708;37.522;2022-07-29T02:09:14;3.45;;;1.58;;
63284;SDS011;49409;55.708;37.522;2022-07-29T02:11:41;5.45;;;1.55;;
63284;SDS011;49409;55.708;37.522;2022-07-29T02:14:13;4.00;;;1.50;;
63284;SDS011;49409;55.708;37.522;2022-07-29T02:16:40;4.05;;;1.75;;
63284;SDS011;49409;55.708;37.522;2022-07-29T02:22:19;2.80;;;1.70;;
63284;SDS011;49409;55.708;37.522;2022-07-29T02:24:49;4.40;;;2.10;;
63284;SDS011;49409;55.708;37.522;2022-07-29T02:27:17;3.13;;;1.50;;
63284;SDS011;49409;55.708;37.522;2022-07-29T02:29:45;3.80;;;1.80;;
63284;SDS011;49409;55.708;37.522;2022-07-29T02:32:13;2.90;;;1.70;;
63284;SDS011;49409;55.708;37.522;2022-07-29T02:34:41;3.22;;;1.17;;
63284;SDS011;49409;55.708;37.522;2022-07-29T02:37:08;2.67;;;1.42;;
63284;SDS011;49409;55.708;37.522;2022-07-29T02:39:36;3.83;;;1.80;;
63284;SDS011;49409;55.708;37.522;2022-07-29T02:42:05;3.08;;;1.70;;
63284;SDS011;49409;55.708;37.522;2022-07-29T02:44:35;3.15;;;1.60;;
63284;SDS011;49409;55.708;37.522;2022-07-29T02:47:02;2.90;;;1.58;;
63284;SDS011;49409;55.708;37.522;2022-07-29T02:52:26;3.10;;;1.50;;
63284;SDS011;49409;55.708;37.522;2022-07-29T02:55:10;2.22;;;1.50;;
63284;SDS011;49409;55.708;37.522;2022-07-29T03:00:27;3.15;;;1.33;;
63284;SDS011;49409;55.708;37.522;2022-07-29T03:02:54;4.03;;;1.63;;
63284;SDS011;49409;55.708;37.522;2022-07-29T03:05:24;3.08;;;1.52;;
63284;SDS011;49409;55.708;37.522;2022-07-29T03:08:24;2.63;;;1.30;;
63284;SDS011;49409;55.708;37.522;2022-07-29T03:13:09;1.75;;;1.27;;
63284;SDS011;49409;55.708;37.522;2022-07-29T03:15:35;2.95;;;1.42;;
63284;SDS011;49409;55.708;37.522;2022-07-29T03:18:02;2.13;;;1.33;;
63284;SDS011;49409;55.708;37.522;2022-07-29T03:20:28;2.38;;;1.10;;
63284;SDS011;49409;55.708;37.522;2022-07-29T03:22:54;5.32;;;1.45;;
63284;SDS011;49409;55.708;37.522;2022-07-29T03:25:20;2.15;;;1.15;;
63284;SDS011;49409;55.708;37.522;2022-07-29T03:27:46;3.45;;;1.70;;
63284;SDS011;49409;55.708;37.522;2022-07-29T03:30:13;1.77;;;1.30;;
63284;SDS011;49409;55.708;37.522;2022-07-29T03:32:39;2.50;;;1.40;;
63284;SDS011;49409;55.708;37.522;2022-07-29T03:35:06;1.15;;;1.00;;
63284;SDS011;49409;55.708;37.522;2022-07-29T03:37:32;1.88;;;1.40;;
63284;SDS011;49409;55.708;37.522;2022-07-29T03:39:58;2.53;;;1.55;;
63284;SDS011;49409;55.708;37.522;2022-07-29T03:42:32;2.75;;;1.30;;
63284;SDS011;49409;55.708;37.522;2022-07-29T03:45:05;3.78;;;1.60;;
63284;SDS011;49409;55.708;37.522;2022-07-29T03:47:35;3.38;;;1.45;;
63284;SDS011;49409;55.708;37.522;2022-07-29T03:50:06;2.55;;;1.40;;
63284;SDS011;49409;55.708;37.522;2022-07-29T03:52:33;4.00;;;1.40;;
63284;SDS011;49409;55.708;37.522;2022-07-29T03:55:00;3.53;;;1.50;;
63284;SDS011;49409;55.708;37.522;2022-07-29T03:57:27;2.08;;;1.00;;
63284;SDS011;49409;55.708;37.522;2022-07-29T03:59:55;4.43;;;1.52;;
63284;SDS011;49409;55.708;37.522;2022-07-29T04:02:21;4.75;;;1.33;;
63284;SDS011;49409;55.708;37.522;2022-07-29T04:04:48;3.75;;;1.35;;
63284;SDS011;49409;55.708;37.522;2022-07-29T04:07:14;4.00;;;1.60;;
63284;SDS011;49409;55.708;37.522;2022-07-29T04:09:40;4.28;;;1.27;;
63284;SDS011;49409;55.708;37.522;2022-07-29T04:12:07;4.55;;;1.38;;
63284;SDS011;49409;55.708;37.522;2022-07-29T04:14:33;3.40;;;1.30;;
63284;SDS011;49409;55.708;37.522;2022-07-29T04:16:59;1.48;;;1.23;;
63284;SDS011;49409;55.708;37.522;2022-07-29T04:19:25;2.92;;;1.30;;
63284;SDS011;49409;55.708;37.522;2022-07-29T04:21:51;2.83;;;1.40;;
63284;SDS011;49409;55.708;37.522;2022-07-29T04:24:16;1.73;;;1.20;;
63284;SDS011;49409;55.708;37.522;2022-07-29T04:26:42;3.00;;;1.60;;
63284;SDS011;49409;55.708;37.522;2022-07-29T04:29:08;3.97;;;1.42;;
63284;SDS011;49409;55.708;37.522;2022-07-29T04:31:33;3.95;;;1.35;;
63284;SDS011;49409;55.708;37.522;2022-07-29T04:33:59;1.83;;;1.33;;
63284;SDS011;49409;55.708;37.522;2022-07-29T04:36:25;4.80;;;1.35;;
63284;SDS011;49409;55.708;37.522;2022-07-29T04:38:50;2.88;;;1.73;;
63284;SDS011;49409;55.708;37.522;2022-07-29T04:41:16;6.10;;;1.80;;
63284;SDS011;49409;55.708;37.522;2022-07-29T04:43:41;4.05;;;1.38;;
63284;SDS011;49409;55.708;37.522;2022-07-29T04:46:07;3.28;;;1.55;;
63284;SDS011;49409;55.708;37.522;2022-07-29T04:48:32;2.72;;;1.50;;
63284;SDS011;49409;55.708;37.522;2022-07-29T04:50:58;2.22;;;1.20;;
63284;SDS011;49409;55.708;37.522;2022-07-29T04:53:24;2.78;;;1.55;;
63284;SDS011;49409;55.708;37.522;2022-07-29T04:55:50;1.45;;;1.25;;
63284;SDS011;49409;55.708;37.522;2022-07-29T04:58:15;3.85;;;1.60;;
63284;SDS011;49409;55.708;37.522;2022-07-29T05:00:41;1.67;;;1.20;;
63284;SDS011;49409;55.708;37.522;2022-07-29T05:03:06;2.85;;;1.30;;
63284;SDS011;49409;55.708;37.522;2022-07-29T05:05:32;2.90;;;1.42;;
63284;SDS011;49409;55.708;37.522;2022-07-29T05:07:57;3.55;;;1.70;;
63284;SDS011;49409;55.708;37.522;2022-07-29T05:10:23;1.90;;;1.15;;
63284;SDS011;49409;55.708;37.522;2022-07-29T05:12:49;3.45;;;1.80;;
63284;SDS011;49409;55.708;37.522;2022-07-29T05:15:14;4.72;;;1.50;;
63284;SDS011;49409;55.708;37.522;2022-07-29T05:17:40;1.77;;;1.58;;
63284;SDS011;49409;55.708;37.522;2022-07-29T05:20:06;2.17;;;1.25;;
63284;SDS011;49409;55.708;37.522;2022-07-29T05:22:32;3.33;;;1.33;;
63284;SDS011;49409;55.708;37.522;2022-07-29T05:24:57;2.67;;;1.38;;
63284;SDS011;49409;55.708;37.522;2022-07-29T05:27:23;3.33;;;1.42;;
63284;SDS011;49409;55.708;37.522;2022-07-29T05:29:49;2.42;;;1.50;;
63284;SDS011;49409;55.708;37.522;2022-07-29T05:32:14;3.63;;;1.65;;
63284;SDS011;49409;55.708;37.522;2022-07-29T05:34:40;4.05;;;1.55;;
63284;SDS011;49409;55.708;37.522;2022-07-29T05:37:06;3.55;;;1.30;;
63284;SDS011;49409;55.708;37.522;2022-07-29T05:39:31;2.45;;;1.20;;
63284;SDS011;49409;55.708;37.522;2022-07-29T05:41:57;3.55;;;1.45;;
63284;SDS011;49409;55.708;37.522;2022-07-29T05:44:22;3.15;;;1.50;;
63284;SDS011;49409;55.708;37.522;2022-07-29T05:46:48;1.60;;;1.33;;
63284;SDS011;49409;55.708;37.522;2022-07-29T05:49:13;1.45;;;1.30;;
63284;SDS011;49409;55.708;37.522;2022-07-29T05:51:39;2.97;;;1.15;;
63284;SDS011;49409;55.708;37.522;2022-07-29T05:54:05;2.25;;;1.30;;
63284;SDS011;49409;55.708;37.522;2022-07-29T05:56:30;2.60;;;1.30;;
63284;SDS011;49409;55.708;37.522;2022-07-29T05:58:56;2.33;;;1.30;;
63284;SDS011;49409;55.708;37.522;2022-07-29T06:01:21;3.90;;;1.48;;
63284;SDS011;49409;55.708;37.522;2022-07-29T06:03:47;2.75;;;1.45;;
63284;SDS011;49409;55.708;37.522;2022-07-29T06:06:12;2.60;;;1.52;;
63284;SDS011;49409;55.708;37.522;2022-07-29T06:08:38;1.67;;;1.17;;
63284;SDS011;49409;55.708;37.522;2022-07-29T06:11:05;2.53;;;1.35;;
63284;SDS011;49409;55.708;37.522;2022-07-29T06:13:30;2.10;;;1.23;;
63284;SDS011;49409;55.708;37.522;2022-07-29T06:15:56;1.45;;;1.10;;
63284;SDS011;49409;55.708;37.522;2022-07-29T06:18:22;1.92;;;1.02;;
63284;SDS011;49409;55.708;37.522;2022-07-29T06:20:50;3.42;;;1.38;;
63284;SDS011;49409;55.708;37.522;2022-07-29T06:23:16;3.40;;;1.50;;
63284;SDS011;49409;55.708;37.522;2022-07-29T06:25:43;2.83;;;1.40;;
63284;SDS011;49409;55.708;37.522;2022-07-29T06:28:08;2.53;;;1.50;;
63284;SDS011;49409;55.708;37.522;2022-07-29T06:30:34;2.30;;;1.42;;
63284;SDS011;49409;55.708;37.522;2022-07-29T06:33:00;1.90;;;1.30;;
63284;SDS011;49409;55.708;37.522;2022-07-29T06:35:26;1.63;;;0.98;;
63284;SDS011;49409;55.708;37.522;2022-07-29T06:37:52;3.03;;;1.20;;
63284;SDS011;49409;55.708;37.522;2022-07-29T06:40:18;3.80;;;1.30;;
63284;SDS011;49409;55.708;37.522;2022-07-29T06:43:02;2.95;;;1.67;;
63284;SDS011;49409;55.708;37.522;2022-07-29T06:45:27;1.15;;;1.10;;
63284;SDS011;49409;55.708;37.522;2022-07-29T06:47:53;2.10;;;1.17;;
63284;SDS011;49409;55.708;37.522;2022-07-29T06:50:18;1.60;;;0.95;;
63284;SDS011;49409;55.708;37.522;2022-07-29T06:52:44;2.08;;;1.40;;
63284;SDS011;49409;55.708;37.522;2022-07-29T06:55:09;2.53;;;1.20;;
63284;SDS011;49409;55.708;37.522;2022-07-29T06:57:35;3.33;;;1.25;;
63284;SDS011;49409;55.708;37.522;2022-07-29T07:00:00;3.60;;;1.30;;
63284;SDS011;49409;55.708;37.522;2022-07-29T07:02:29;1.83;;;1.33;;
63284;SDS011;49409;55.708;37.522;2022-07-29T07:04:54;3.58;;;1.40;;
63284;SDS011;49409;55.708;37.522;2022-07-29T07:07:20;2.78;;;1.10;;
63284;SDS011;49409;55.708;37.522;2022-07-29T07:09:45;2.67;;;1.40;;
63284;SDS011;49409;55.708;37.522;2022-07-29T07:12:11;2.33;;;1.27;;
63284;SDS011;49409;55.708;37.522;2022-07-29T07:14:36;1.98;;;1.30;;
63284;SDS011;49409;55.708;37.522;2022-07-29T07:17:02;2.67;;;1.13;;
63284;SDS011;49409;55.708;37.522;2022-07-29T07:19:28;2.05;;;1.30;;
63284;SDS011;49409;55.708;37.522;2022-07-29T07:21:54;2.40;;;1.08;;
63284;SDS011;49409;55.708;37.522;2022-07-29T07:24:19;1.17;;;1.00;;
63284;SDS011;49409;55.708;37.522;2022-07-29T07:26:45;1.48;;;1.10;;
63284;SDS011;49409;55.708;37.522;2022-07-29T07:29:11;2.40;;;0.90;;
63284;SDS011;49409;55.708;37.522;2022-07-29T07:31:36;2.08;;;0.98;;
63284;SDS011;49409;55.708;37.522;2022-07-29T07:34:03;1.83;;;1.13;;
63284;SDS011;49409;55.708;37.522;2022-07-29T07:36:28;2.30;;;1.15;;
63284;SDS011;49409;55.708;37.522;2022-07-29T07:38:54;1.50;;;1.00;;
63284;SDS011;49409;55.708;37.522;2022-07-29T07:41:20;2.00;;;1.30;;
63284;SDS011;49409;55.708;37.522;2022-07-29T07:43:46;2.42;;;1.00;;
63284;SDS011;49409;55.708;37.522;2022-07-29T07:46:11;2.03;;;1.05;;
63284;SDS011;49409;55.708;37.522;2022-07-29T07:48:37;1.33;;;0.90;;
63284;SDS011;49409;55.708;37.522;2022-07-29T07:51:02;1.65;;;1.10;;
63284;SDS011;49409;55.708;37.522;2022-07-29T07:53:28;1.23;;;0.90;;
63284;SDS011;49409;55.708;37.522;2022-07-29T07:55:54;4.35;;;1.23;;
63284;SDS011;49409;55.708;37.522;2022-07-29T07:58:20;1.00;;;0.90;;
63284;SDS011;49409;55.708;37.522;2022-07-29T08:00:46;2.10;;;0.80;;
63284;SDS011;49409;55.708;37.522;2022-07-29T08:03:12;3.22;;;1.20;;
63284;SDS011;49409;55.708;37.522;2022-07-29T08:05:39;0.98;;;0.80;;
63284;SDS011;49409;55.708;37.522;2022-07-29T08:08:04;1.88;;;0.90;;
63284;SDS011;49409;55.708;37.522;2022-07-29T08:10:30;1.83;;;0.82;;
63284;SDS011;49409;55.708;37.522;2022-07-29T08:13:15;1.85;;;0.90;;
63284;SDS011;49409;55.708;37.522;2022-07-29T08:15:40;2.10;;;1.10;;
63284;SDS011;49409;55.708;37.522;2022-07-29T08:18:08;1.65;;;0.90;;
63284;SDS011;49409;55.708;37.522;2022-07-29T08:20:34;2.78;;;1.20;;
63284;SDS011;49409;55.708;37.522;2022-07-29T08:23:00;2.20;;;1.02;;
63284;SDS011;49409;55.708;37.522;2022-07-29T08:25:27;1.90;;;1.10;;
63284;SDS011;49409;55.708;37.522;2022-07-29T08:27:52;3.45;;;1.30;;
63284;SDS011;49409;55.708;37.522;2022-07-29T08:30:18;1.75;;;0.98;;
63284;SDS011;49409;55.708;37.522;2022-07-29T08:32:43;3.80;;;1.10;;
63284;SDS011;49409;55.708;37.522;2022-07-29T08:35:09;2.08;;;1.10;;
63284;SDS011;49409;55.708;37.522;2022-07-29T08:37:35;3.25;;;1.17;;
63284;SDS011;49409;55.708;37.522;2022-07-29T08:40:00;2.47;;;0.93;;
63284;SDS011;49409;55.708;37.522;2022-07-29T08:42:26;2.47;;;1.02;;
63284;SDS011;49409;55.708;37.522;2022-07-29T08:44:51;2.05;;;1.00;;
63284;SDS011;49409;55.708;37.522;2022-07-29T08:47:18;1.27;;;0.98;;
63284;SDS011;49409;55.708;37.522;2022-07-29T08:49:44;3.70;;;0.98;;
63284;SDS011;49409;55.708;37.522;2022-07-29T08:52:12;0.80;;;0.70;;
63284;SDS011;49409;55.708;37.522;2022-07-29T08:54:39;2.38;;;1.00;;
63284;SDS011;49409;55.708;37.522;2022-07-29T08:57:08;1.60;;;1.10;;
63284;SDS011;49409;55.708;37.522;2022-07-29T08:59:35;1.50;;;1.00;;
63284;SDS011;49409;55.708;37.522;2022-07-29T09:02:05;1.52;;;0.90;;
63284;SDS011;49409;55.708;37.522;2022-07-29T09:04:37;1.67;;;0.90;;
63284;SDS011;49409;55.708;37.522;2022-07-29T09:07:03;2.05;;;1.00;;
63284;SDS011;49409;55.708;37.522;2022-07-29T09:09:30;4.80;;;1.33;;
63284;SDS011;49409;55.708;37.522;2022-07-29T09:11:58;2.05;;;0.90;;
63284;SDS011;49409;55.708;37.522;2022-07-29T09:14:24;1.00;;;0.77;;
63284;SDS011;49409;55.708;37.522;2022-07-29T09:16:54;1.50;;;1.05;;
63284;SDS011;49409;55.708;37.522;2022-07-29T09:21:49;1.33;;;0.95;;
63284;SDS011;49409;55.708;37.522;2022-07-29T09:24:36;1.60;;;1.10;;
63284;SDS011;49409;55.708;37.522;2022-07-29T09:27:19;3.10;;;1.30;;
63284;SDS011;49409;55.708;37.522;2022-07-29T09:29:47;2.05;;;0.95;;
63284;SDS011;49409;55.708;37.522;2022-07-29T09:32:21;1.27;;;0.93;;
63284;SDS011;49409;55.708;37.522;2022-07-29T09:34:46;2.15;;;1.05;;
63284;SDS011;49409;55.708;37.522;2022-07-29T09:37:12;2.60;;;1.00;;
63284;SDS011;49409;55.708;37.522;2022-07-29T09:39:51;1.85;;;0.95;;
63284;SDS011;49409;55.708;37.522;2022-07-29T09:42:26;1.52;;;1.10;;
63284;SDS011;49409;55.708;37.522;2022-07-29T09:44:54;1.90;;;1.17;;
63284;SDS011;49409;55.708;37.522;2022-07-29T09:47:19;1.60;;;0.85;;
63284;SDS011;49409;55.708;37.522;2022-07-29T09:49:53;1.30;;;0.85;;
63284;SDS011;49409;55.708;37.522;2022-07-29T09:52:24;2.05;;;1.00;;
63284;SDS011;49409;55.708;37.522;2022-07-29T09:54:51;1.23;;;0.98;;
63284;SDS011;49409;55.708;37.522;2022-07-29T09:57:36;0.95;;;0.80;;
63284;SDS011;49409;55.708;37.522;2022-07-29T10:02:43;2.17;;;0.82;;
63284;SDS011;49409;55.708;37.522;2022-07-29T10:05:22;0.98;;;0.77;;
63284;SDS011;49409;55.708;37.522;2022-07-29T10:10:24;1.75;;;0.80;;
63284;SDS011;49409;55.708;37.522;2022-07-29T10:12:57;2.40;;;1.20;;
63284;SDS011;49409;55.708;37.522;2022-07-29T10:15:25;0.82;;;0.82;;
63284;SDS011;49409;55.708;37.522;2022-07-29T10:17:52;1.20;;;1.00;;
63284;SDS011;49409;55.708;37.522;2022-07-29T10:20:19;1.55;;;0.80;;
63284;SDS011;49409;55.708;37.522;2022-07-29T10:22:46;2.30;;;1.10;;
63284;SDS011;49409;55.708;37.522;2022-07-29T10:25:13;1.48;;;0.70;;
63284;SDS011;49409;55.708;37.522;2022-07-29T10:27:40;0.77;;;0.65;;
63284;SDS011;49409;55.708;37.522;2022-07-29T10:30:05;2.53;;;1.00;;
63284;SDS011;49409;55.708;37.522;2022-07-29T10:43:35;1.13;;;0.90;;
63284;SDS011;49409;55.708;37.522;2022-07-29T10:46:03;1.85;;;1.02;;
63284;SDS011;49409;55.708;37.522;2022-07-29T10:48:29;1.92;;;0.98;;
63284;SDS011;49409;55.708;37.522;2022-07-29T10:50:59;1.63;;;0.80;;
63284;SDS011;49409;55.708;37.522;2022-07-29T11:01:50;2.53;;;0.80;;
63284;SDS011;49409;55.708;37.522;2022-07-29T11:04:16;0.77;;;0.77;;
63284;SDS011;49409;55.708;37.522;2022-07-29T11:07:10;0.95;;;0.77;;
63284;SDS011;49409;55.708;37.522;2022-07-29T11:09:37;1.42;;;0.77;;
63284;SDS011;49409;55.708;37.522;2022-07-29T11:12:03;1.00;;;0.90;;
63284;SDS011;49409;55.708;37.522;2022-07-29T11:14:56;1.90;;;0.80;;
63284;SDS011;49409;55.708;37.522;2022-07-29T11:17:24;2.13;;;0.98;;
63284;SDS011;49409;55.708;37.522;2022-07-29T11:19:50;2.35;;;0.90;;
63284;SDS011;49409;55.708;37.522;2022-07-29T11:22:35;2.10;;;0.80;;
63284;SDS011;49409;55.708;37.522;2022-07-29T11:25:15;1.00;;;0.80;;
63284;SDS011;49409;55.708;37.522;2022-07-29T11:27:42;1.70;;;1.05;;
63284;SDS011;49409;55.708;37.522;2022-07-29T11:30:09;1.75;;;0.90;;
63284;SDS011;49409;55.708;37.522;2022-07-29T11:32:37;2.08;;;0.90;;
63284;SDS011;49409;55.708;37.522;2022-07-29T11:35:13;2.17;;;0.80;;
63284;SDS011;49409;55.708;37.522;2022-07-29T11:43:48;2.80;;;0.85;;
63284;SDS011;49409;55.708;37.522;2022-07-29T11:46:16;1.33;;;0.80;;
63284;SDS011;49409;55.708;37.522;2022-07-29T11:49:03;0.77;;;0.75;;
63284;SDS011;49409;55.708;37.522;2022-07-29T11:51:29;1.23;;;0.70;;
63284;SDS011;49409;55.708;37.522;2022-07-29T11:53:55;0.88;;;0.73;;
63284;SDS011;49409;55.708;37.522;2022-07-29T11:56:22;1.73;;;0.85;;
63284;SDS011;49409;55.708;37.522;2022-07-29T11:59:00;2.10;;;0.82;;
63284;SDS011;49409;55.708;37.522;2022-07-29T12:01:29;1.95;;;1.10;;
63284;SDS011;49409;55.708;37.522;2022-07-29T12:04:07;1.55;;;0.93;;
63284;SDS011;49409;55.708;37.522;2022-07-29T12:06:33;1.63;;;0.70;;
63284;SDS011;49409;55.708;37.522;2022-07-29T12:08:59;2.28;;;0.80;;
63284;SDS011;49409;55.708;37.522;2022-07-29T12:11:25;0.85;;;0.63;;
63284;SDS011;49409;55.708;37.522;2022-07-29T12:13:53;1.65;;;0.85;;
63284;SDS011;49409;55.708;37.522;2022-07-29T12:16:19;2.22;;;0.90;;
63284;SDS011;49409;55.708;37.522;2022-07-29T12:18:59;0.95;;;0.68;;
63284;SDS011;49409;55.708;37.522;2022-07-29T12:21:25;1.38;;;0.80;;
63284;SDS011;49409;55.708;37.522;2022-07-29T12:23:52;2.08;;;0.98;;
63284;SDS011;49409;55.708;37.522;2022-07-29T12:26:19;1.20;;;0.90;;
63284;SDS011;49409;55.708;37.522;2022-07-29T12:28:44;0.85;;;0.68;;
63284;SDS011;49409;55.708;37.522;2022-07-29T12:31:13;1.08;;;0.93;;
63284;SDS011;49409;55.708;37.522;2022-07-29T12:33:39;2.10;;;0.90;;
63284;SDS011;49409;55.708;37.522;2022-07-29T12:36:05;2.00;;;1.00;;
63284;SDS011;49409;55.708;37.522;2022-07-29T12:38:31;2.05;;;1.00;;
63284;SDS011;49409;55.708;37.522;2022-07-29T12:40:57;0.70;;;0.70;;
63284;SDS011;49409;55.708;37.522;2022-07-29T12:43:23;2.47;;;0.88;;
63284;SDS011;49409;55.708;37.522;2022-07-29T12:45:53;3.17;;;0.82;;
63284;SDS011;49409;55.708;37.522;2022-07-29T12:51:03;0.95;;;0.73;;
63284;SDS011;49409;55.708;37.522;2022-07-29T12:53:30;1.58;;;0.70;;
63284;SDS011;49409;55.708;37.522;2022-07-29T12:55:57;1.83;;;0.80;;
63284;SDS011;49409;55.708;37.522;2022-07-29T12:58:39;1.45;;;0.85;;
63284;SDS011;49409;55.708;37.522;2022-07-29T13:01:08;2.28;;;0.73;;
63284;SDS011;49409;55.708;37.522;2022-07-29T13:03:48;2.38;;;0.90;;
63284;SDS011;49409;55.708;37.522;2022-07-29T13:09:02;2.22;;;1.05;;
63284;SDS011;49409;55.708;37.522;2022-07-29T13:11:33;1.40;;;0.98;;
63284;SDS011;49409;55.708;37.522;2022-07-29T13:13:59;1.00;;;0.82;;
63284;SDS011;49409;55.708;37.522;2022-07-29T13:16:24;2.00;;;1.08;;
63284;SDS011;49409;55.708;37.522;2022-07-29T13:19:02;1.80;;;0.75;;
63284;SDS011;49409;55.708;37.522;2022-07-29T13:21:34;2.30;;;0.80;;
63284;SDS011;49409;55.708;37.522;2022-07-29T13:24:00;3.22;;;1.02;;
63284;SDS011;49409;55.708;37.522;2022-07-29T13:29:36;1.23;;;0.90;;
63284;SDS011;49409;55.708;37.522;2022-07-29T13:32:05;1.45;;;0.90;;
63284;SDS011;49409;55.708;37.522;2022-07-29T13:34:30;2.38;;;1.02;;
63284;SDS011;49409;55.708;37.522;2022-07-29T13:36:56;1.98;;;1.00;;
63284;SDS011;49409;55.708;37.522;2022-07-29T13:39:21;2.22;;;0.95;;
63284;SDS011;49409;55.708;37.522;2022-07-29T13:41:47;1.42;;;1.00;;
63284;SDS011;49409;55.708;37.522;2022-07-29T13:44:12;0.85;;;0.85;;
63284;SDS011;49409;55.708;37.522;2022-07-29T13:46:38;2.92;;;1.20;;
63284;SDS011;49409;55.708;37.522;2022-07-29T13:49:03;2.80;;;1.25;;
63284;SDS011;49409;55.708;37.522;2022-07-29T13:51:29;2.42;;;1.27;;
63284;SDS011;49409;55.708;37.522;2022-07-29T13:53:54;2.72;;;1.17;;
63284;SDS011;49409;55.708;37.522;2022-07-29T13:56:20;2.20;;;1.20;;
63284;SDS011;49409;55.708;37.522;2022-07-29T13:58:45;1.67;;;1.20;;
63284;SDS011;49409;55.708;37.522;2022-07-29T14:01:11;1.83;;;1.23;;
63284;SDS011;49409;55.708;37.522;2022-07-29T14:03:37;2.38;;;1.10;;
63284;SDS011;49409;55.708;37.522;2022-07-29T14:06:06;1.90;;;0.80;;
63284;SDS011;49409;55.708;37.522;2022-07-29T14:08:32;0.93;;;0.70;;
63284;SDS011;49409;55.708;37.522;2022-07-29T14:10:57;1.20;;;0.90;;
63284;SDS011;49409;55.708;37.522;2022-07-29T14:13:23;2.22;;;0.80;;
63284;SDS011;49409;55.708;37.522;2022-07-29T14:15:49;1.35;;;0.75;;
63284;SDS011;49409;55.708;37.522;2022-07-29T14:18:14;1.55;;;1.00;;
63284;SDS011;49409;55.708;37.522;2022-07-29T14:20:40;1.00;;;0.90;;
63284;SDS011;49409;55.708;37.522;2022-07-29T14:23:05;0.70;;;0.60;;
63284;SDS011;49409;55.708;37.522;2022-07-29T14:25:31;1.17;;;0.70;;
63284;SDS011;49409;55.708;37.522;2022-07-29T14:27:56;2.58;;;1.00;;
63284;SDS011;49409;55.708;37.522;2022-07-29T14:30:22;2.20;;;0.93;;
63284;SDS011;49409;55.708;37.522;2022-07-29T14:32:47;1.45;;;0.82;;
63284;SDS011;49409;55.708;37.522;2022-07-29T14:35:13;2.75;;;1.00;;
63284;SDS011;49409;55.708;37.522;2022-07-29T14:37:39;2.65;;;1.13;;
63284;SDS011;49409;55.708;37.522;2022-07-29T14:40:04;1.48;;;0.88;;
63284;SDS011;49409;55.708;37.522;2022-07-29T14:42:31;2.88;;;0.93;;
63284;SDS011;49409;55.708;37.522;2022-07-29T14:44:56;2.50;;;1.27;;
63284;SDS011;49409;55.708;37.522;2022-07-29T14:47:22;2.30;;;1.05;;
63284;SDS011;49409;55.708;37.522;2022-07-29T14:49:48;1.60;;;1.00;;
63284;SDS011;49409;55.708;37.522;2022-07-29T14:52:14;1.80;;;0.80;;
63284;SDS011;49409;55.708;37.522;2022-07-29T14:54:40;2.75;;;1.13;;
63284;SDS011;49409;55.708;37.522;2022-07-29T14:57:05;2.28;;;0.90;;
63284;SDS011;49409;55.708;37.522;2022-07-29T14:59:31;0.60;;;0.60;;
63284;SDS011;49409;55.708;37.522;2022-07-29T15:01:56;3.53;;;1.02;;
63284;SDS011;49409;55.708;37.522;2022-07-29T15:04:22;2.92;;;0.88;;
63284;SDS011;49409;55.708;37.522;2022-07-29T15:06:48;2.42;;;1.15;;
63284;SDS011;49409;55.708;37.522;2022-07-29T15:09:13;2.75;;;1.30;;
63284;SDS011;49409;55.708;37.522;2022-07-29T15:11:39;1.52;;;1.10;;
63284;SDS011;49409;55.708;37.522;2022-07-29T15:14:05;0.80;;;0.80;;
63284;SDS011;49409;55.708;37.522;2022-07-29T15:16:31;1.90;;;0.95;;
63284;SDS011;49409;55.708;37.522;2022-07-29T15:18:57;2.25;;;0.60;;
63284;SDS011;49409;55.708;37.522;2022-07-29T15:21:23;2.08;;;0.77;;
63284;SDS011;49409;55.708;37.522;2022-07-29T15:23:49;1.95;;;0.80;;
63284;SDS011;49409;55.708;37.522;2022-07-29T15:26:14;2.20;;;1.20;;
63284;SDS011;49409;55.708;37.522;2022-07-29T15:28:40;2.97;;;1.05;;
63284;SDS011;49409;55.708;37.522;2022-07-29T15:31:05;2.15;;;0.85;;
63284;SDS011;49409;55.708;37.522;2022-07-29T15:33:31;1.48;;;1.08;;
63284;SDS011;49409;55.708;37.522;2022-07-29T15:35:56;3.08;;;1.10;;
63284;SDS011;49409;55.708;37.522;2022-07-29T15:38:22;3.08;;;1.20;;
63284;SDS011;49409;55.708;37.522;2022-07-29T15:40:47;1.98;;;1.00;;